Airfield :







YOU CAN JOIN US ON...

 
LOGIN :

Register | Disclaimer

   EN    FR    IT 

 









Legend :    VFR   Marginal VFR   IFR   Intensive IFR   Very Intensive IFR
Visi :
Ceiling :
>= 8 km
>= 3000ft
5 to 8 km
1000 to 3000 ft
1500m to 5 km
500 to 1000 ft
800 to 1500m
200 to 500 ft
< 800m
< 200 ft
Symbols :   Thunderstorms  Fog  Heavy snow  Heavy precipitations  Wind > 20 kt






- Airport Elevation : 160 ft
- IATA code : YYR


CYYR - Goose Bay

CURRENT METAR :
  • 240500Z 10004KT 15SM OVC018 04/01 A3004 RMK SC8 SLP175

EXPIRED METARs :
  • 240400Z 10005KT 15SM OVC017 04/01 A3007 RMK SC8 SLP185
  • 240300Z 16007KT 15SM BKN018 BKN190 04/01 A3011 RMK SC7AC1 SLP198
  • 240225Z 17012KT 15SM BKN018 BKN190 BKN230 04/01 A3011 RMK SC6AC2CI1 SLP199
  • 240200Z 16013KT 15SM SCT019 BKN180 BKN230 04/01 A3011 RMK SC3AC2CI1 SLP198

TAF TAF CYYR
Valid from the 24 at 00:00 until the 25 at 00:00 UTC


232330Z 2400/2424 15008KT P6SM BKN015 OVC025
TEMPO 2400/2405 FEW015 BKN025 OVC170
FM240500 16005KT P6SM FEW015 OVC025
TEMPO 2405/2408 5SM -RA BR BKN015 OVC025
FM240800 16008KT 5SM -RA BR BKN015 OVC030
FM241100 16012KT 3SM -RA BR BKN012 OVC025
BECMG 2416/2418 VRB03KT
BECMG 2421/2423 27008KT
FM242300 27008KT P6SM BKN020 OVC040 RMK NXT FCST BY 240600Z



MET'MAP, your aeronautical weather chart ! - Copyright ORBIFLY December 2007 - Disclaimer

ORBIFLY MET'MAP TEAM :

Programming & Development : Alexandra Zaïnal
Concept & Development : Baudouin d'Aumeries
Co-Development & Prog : Marc-Olivier Méhu
Technical & hardware support : Manuel Goepfert

Contact : metmap@orbifly.com




SOURCES & CREDITS :

   NOAA